Time;durP1;ratioP1;P1;durP2;ratioP2;P2;SDS_P1;SDS_P2;PMS_P1;PMS_P2;Temp;Humidity;BMP_temperature;BMP_pressure;BME280_temperature;BME280_humidity;BME280_pressure;Samples;Min_cycle;Max_cycle;Signal;HPM_P1;HPM_P2
2021/05/23 00:00:49;;;;;;;1.25;0.50;;;9.90;99.90;;;;;;5011803;28;20026;-72
2021/05/23 00:03:16;;;;;;;2.00;1.00;;;9.80;99.90;;;;;;5011544;28;20030;-72
2021/05/23 00:05:43;;;;;;;2.92;0.77;;;9.90;99.90;;;;;;5011768;28;20492;-72
2021/05/23 00:08:17;;;;;;;4.07;0.82;;;9.90;99.90;;;;;;5043674;23;20124;-72
2021/05/23 00:10:57;;;;;;;4.35;0.77;;;9.90;99.90;;;;;;5017924;28;20487;-72
2021/05/23 00:13:29;;;;;;;1.20;0.60;;;9.90;99.90;;;;;;5010195;28;20022;-72
2021/05/23 00:16:04;;;;;;;2.22;0.75;;;9.90;99.90;;;;;;5010609;28;20064;-72
2021/05/23 00:18:33;;;;;;;2.40;0.70;;;9.80;99.90;;;;;;5010527;28;20072;-72
2021/05/23 00:20:59;;;;;;;6.40;0.90;;;9.80;99.90;;;;;;5011600;28;20029;-72
2021/05/23 00:23:25;;;;;;;1.38;0.60;;;9.80;99.90;;;;;;5011412;28;20274;-72
2021/05/23 00:25:52;;;;;;;2.28;0.73;;;9.80;99.90;;;;;;5011528;28;20126;-72
2021/05/23 00:28:18;;;;;;;2.42;0.63;;;9.80;99.90;;;;;;5011447;28;20097;-72
2021/05/23 00:30:43;;;;;;;6.50;2.05;;;10.00;99.90;;;;;;5011450;28;20113;-72
2021/05/23 00:33:10;;;;;;;3.45;0.65;;;10.00;99.90;;;;;;5011207;28;20490;-72
2021/05/23 00:35:37;;;;;;;4.82;0.80;;;9.90;99.90;;;;;;5011324;28;20021;-72
2021/05/23 00:38:03;;;;;;;3.38;0.65;;;10.00;99.90;;;;;;5011049;28;20060;-72
2021/05/23 00:40:29;;;;;;;2.58;0.60;;;10.10;99.90;;;;;;5011186;28;20026;-71
2021/05/23 00:42:54;;;;;;;1.38;0.63;;;10.10;99.90;;;;;;5010908;28;20029;-72
2021/05/23 00:45:20;;;;;;;3.20;0.68;;;10.10;99.90;;;;;;5011082;28;20028;-72
2021/05/23 00:47:47;;;;;;;2.80;0.70;;;10.20;99.90;;;;;;5011069;28;20030;-72
2021/05/23 00:50:18;;;;;;;3.15;0.60;;;10.20;99.90;;;;;;5011086;28;20026;-72
2021/05/23 00:52:44;;;;;;;3.33;0.60;;;10.30;99.90;;;;;;5010727;28;20026;-72
2021/05/23 00:55:10;;;;;;;2.67;0.60;;;10.10;99.90;;;;;;5009769;28;20026;-72
2021/05/23 00:57:36;;;;;;;4.68;0.70;;;10.00;99.90;;;;;;5013000;28;20058;-72
2021/05/23 01:00:02;;;;;;;4.50;0.70;;;10.00;99.90;;;;;;5015068;28;20041;-72
2021/05/23 01:02:48;;;;;;;2.40;0.75;;;9.80;99.90;;;;;;5014827;28;20050;-72
2021/05/23 01:05:17;;;;;;;3.28;0.60;;;9.80;99.90;;;;;;5014949;28;20030;-72
2021/05/23 01:07:43;;;;;;;3.30;0.73;;;9.80;99.90;;;;;;5013411;28;20034;-72
2021/05/23 01:10:12;;;;;;;3.90;0.70;;;9.80;99.90;;;;;;5013430;28;20033;-72
2021/05/23 01:12:52;;;;;;;3.45;0.70;;;9.80;99.90;;;;;;5014542;28;20029;-72
2021/05/23 01:15:32;;;;;;;;;;;9.60;99.90;;;;;;5015237;28;20101;-72
2021/05/23 01:18:01;;;;;;;2.75;0.80;;;9.50;99.90;;;;;;5014757;28;19937;-72
2021/05/23 01:20:45;;;;;;;4.45;0.70;;;9.50;99.90;;;;;;5014506;28;20065;-72
2021/05/23 01:23:26;;;;;;;3.10;0.63;;;9.60;99.90;;;;;;5014516;28;20030;-72
2021/05/23 01:25:55;;;;;;;3.72;0.80;;;9.50;99.90;;;;;;5014721;28;20029;-72
2021/05/23 01:28:21;;;;;;;2.53;0.77;;;9.50;99.90;;;;;;5013320;28;20060;-72
2021/05/23 01:30:50;;;;;;;1.20;0.55;;;9.60;99.90;;;;;;5014367;28;20026;-72
2021/05/23 01:33:19;;;;;;;2.67;0.77;;;9.60;99.90;;;;;;5014241;28;20025;-72
2021/05/23 01:35:50;;;;;;;2.17;0.65;;;9.50;99.90;;;;;;5013167;28;20498;-72
2021/05/23 01:38:19;;;;;;;1.42;0.57;;;9.50;99.90;;;;;;5014461;28;20026;-72
2021/05/23 01:40:47;;;;;;;1.13;0.55;;;9.50;99.90;;;;;;5013199;28;20099;-73
2021/05/23 01:43:13;;;;;;;2.97;0.88;;;9.40;99.90;;;;;;5012947;28;20037;-72
2021/05/23 01:45:40;;;;;;;4.28;1.08;;;9.40;99.90;;;;;;5014184;28;20103;-72
2021/05/23 01:48:07;;;;;;;1.35;0.60;;;9.20;99.90;;;;;;5014569;28;20101;-72
2021/05/23 01:50:33;;;;;;;1.27;0.35;;;9.00;99.90;;;;;;5014227;28;20400;-72
2021/05/23 01:53:02;;;;;;;2.67;0.70;;;9.00;99.90;;;;;;5014114;28;20025;-72
2021/05/23 01:55:28;;;;;;;2.88;0.60;;;9.00;99.90;;;;;;5014275;28;20036;-72
2021/05/23 01:57:55;;;;;;;5.20;0.80;;;8.90;99.90;;;;;;5014456;28;20472;-72
2021/05/23 02:00:29;;;;;;;2.15;0.65;;;8.90;99.90;;;;;;5013999;28;20487;-72
2021/05/23 02:02:55;;;;;;;3.85;0.73;;;8.90;99.90;;;;;;5012558;28;20049;-72
2021/05/23 02:05:21;;;;;;;2.70;0.80;;;8.90;99.90;;;;;;5014008;28;20061;-72
2021/05/23 02:07:47;;;;;;;3.70;1.00;;;8.90;99.90;;;;;;5013496;28;20029;-72
2021/05/23 02:10:15;;;;;;;5.03;0.85;;;8.80;99.90;;;;;;5013017;28;20491;-72
2021/05/23 02:12:42;;;;;;;4.55;0.90;;;8.70;99.90;;;;;;5012365;28;20049;-72
2021/05/23 02:15:09;;;;;;;3.17;0.98;;;8.70;99.90;;;;;;5013770;28;20075;-72
2021/05/23 02:17:41;;;;;;;4.90;0.70;;;8.70;99.90;;;;;;5012812;28;20458;-72
2021/05/23 02:20:10;;;;;;;3.40;1.00;;;8.80;99.90;;;;;;5012300;28;20026;-72
2021/05/23 02:22:40;;;;;;;6.45;1.08;;;8.80;99.90;;;;;;5013275;28;20397;-72
2021/05/23 02:25:08;;;;;;;3.05;0.80;;;8.70;99.90;;;;;;5013585;28;20041;-72
2021/05/23 02:27:42;;;;;;;4.18;0.77;;;8.50;99.90;;;;;;5013484;28;20030;-72
2021/05/23 02:30:12;;;;;;;2.88;0.80;;;8.50;99.90;;;;;;5013453;28;20096;-72
2021/05/23 02:32:38;;;;;;;2.88;0.90;;;8.40;99.90;;;;;;5013059;28;20026;-72
2021/05/23 02:35:05;;;;;;;3.13;0.82;;;8.30;99.90;;;;;;5013344;28;20033;-72
2021/05/23 02:37:31;;;;;;;2.70;0.80;;;8.40;99.90;;;;;;5013373;28;20018;-72
2021/05/23 02:39:56;;;;;;;4.63;1.08;;;8.30;99.90;;;;;;5013410;28;20525;-72
2021/05/23 02:42:22;;;;;;;5.00;1.13;;;8.20;99.90;;;;;;5012050;28;20029;-72
2021/05/23 02:44:47;;;;;;;2.67;1.10;;;8.20;99.90;;;;;;5012170;28;20026;-72
2021/05/23 02:47:13;;;;;;;3.08;0.70;;;8.10;99.90;;;;;;5011781;28;20029;-72
2021/05/23 02:49:43;;;;;;;2.92;0.70;;;8.00;99.90;;;;;;5011739;28;20022;-72
2021/05/23 02:52:10;;;;;;;1.58;0.77;;;8.00;99.90;;;;;;5012848;28;20526;-72
2021/05/23 02:54:36;;;;;;;5.63;0.70;;;8.10;99.90;;;;;;5013012;28;20076;-72
2021/05/23 02:57:02;;;;;;;3.58;0.60;;;7.90;99.90;;;;;;5011596;28;20022;-72
2021/05/23 02:59:28;;;;;;;4.50;0.80;;;7.90;99.90;;;;;;5012882;28;20033;-72
2021/05/23 03:01:53;;;;;;;3.33;0.80;;;7.80;99.90;;;;;;5012420;28;20040;-72
2021/05/23 03:04:19;;;;;;;1.67;0.70;;;7.70;99.90;;;;;;5012729;28;20101;-72
2021/05/23 03:06:44;;;;;;;3.50;0.80;;;7.90;99.90;;;;;;5012537;28;20025;-72
2021/05/23 03:09:10;;;;;;;3.03;0.85;;;8.30;99.90;;;;;;5011324;28;20030;-72
2021/05/23 03:11:35;;;;;;;1.77;0.70;;;8.70;99.90;;;;;;5012699;28;20029;-72
2021/05/23 03:14:01;;;;;;;3.13;0.70;;;8.90;99.90;;;;;;5012592;28;20073;-72
2021/05/23 03:16:26;;;;;;;3.83;0.80;;;9.20;99.90;;;;;;5012531;28;20462;-71
2021/05/23 03:18:52;;;;;;;2.35;0.68;;;9.50;99.90;;;;;;5012378;28;20447;-72
2021/05/23 03:21:17;;;;;;;1.75;0.75;;;9.60;99.90;;;;;;5010707;28;20034;-72
2021/05/23 03:23:43;;;;;;;3.97;0.95;;;9.70;99.90;;;;;;5012413;28;20030;-72
2021/05/23 03:26:08;;;;;;;3.58;0.75;;;9.70;99.90;;;;;;5011122;28;20030;-72
2021/05/23 03:28:34;;;;;;;4.40;0.80;;;9.80;99.90;;;;;;5012149;28;20030;-72
2021/05/23 03:31:00;;;;;;;5.85;0.70;;;9.80;99.90;;;;;;5012244;28;20029;-72
2021/05/23 03:33:25;;;;;;;4.68;0.95;;;10.00;99.90;;;;;;5011919;28;20021;-71
2021/05/23 03:35:51;;;;;;;5.93;0.88;;;10.00;99.90;;;;;;5012177;28;20401;-72
2021/05/23 03:38:16;;;;;;;4.32;0.90;;;10.00;99.90;;;;;;5010908;28;20018;-72
2021/05/23 03:40:42;;;;;;;3.15;0.63;;;9.90;99.90;;;;;;5012175;28;20109;-72
2021/05/23 03:43:08;;;;;;;3.03;0.73;;;9.90;99.90;;;;;;5011847;28;20040;-72
2021/05/23 03:45:34;;;;;;;1.85;0.50;;;9.90;99.90;;;;;;5011899;28;20026;-72
2021/05/23 03:48:00;;;;;;;2.28;0.63;;;9.90;99.90;;;;;;5010544;28;20037;-72
2021/05/23 03:50:26;;;;;;;4.47;1.10;;;9.80;99.90;;;;;;5011923;28;20057;-72
2021/05/23 03:52:55;;;;;;;4.28;0.93;;;9.80;99.90;;;;;;5011677;28;20057;-72
2021/05/23 03:55:22;;;;;;;6.65;0.98;;;9.80;99.90;;;;;;5010596;28;20029;-72
2021/05/23 03:57:48;;;;;;;6.05;1.20;;;9.80;99.90;;;;;;5011749;28;20018;-72
2021/05/23 04:00:16;;;;;;;3.15;0.60;;;9.90;99.90;;;;;;5010493;28;20030;-72
2021/05/23 04:02:47;;;;;;;2.75;0.70;;;9.90;99.90;;;;;;5011394;28;20080;-72
2021/05/23 04:05:14;;;;;;;5.25;0.73;;;9.80;99.90;;;;;;5011773;28;20053;-72
2021/05/23 04:07:39;;;;;;;3.83;0.60;;;9.80;99.90;;;;;;5011520;28;20038;-72
2021/05/23 04:10:07;;;;;;;3.00;0.77;;;9.80;99.90;;;;;;5010226;28;20032;-72
2021/05/23 04:12:37;;;;;;;4.45;0.63;;;9.80;99.90;;;;;;5010025;28;20069;-72
2021/05/23 04:15:04;;;;;;;4.55;0.98;;;9.90;99.90;;;;;;5011505;28;20022;-72
2021/05/23 04:17:30;;;;;;;2.67;0.73;;;10.00;99.90;;;;;;5011523;28;20030;-72
2021/05/23 04:19:55;;;;;;;2.75;0.80;;;10.10;99.90;;;;;;5011687;28;20029;-72
2021/05/23 04:22:21;;;;;;;2.20;0.57;;;10.20;99.90;;;;;;5011146;28;20030;-72
2021/05/23 04:24:46;;;;;;;2.65;0.70;;;10.40;99.90;;;;;;5011434;28;20476;-72
2021/05/23 04:27:12;;;;;;;1.83;0.60;;;10.50;99.90;;;;;;5011301;28;20049;-72
2021/05/23 04:29:38;;;;;;;5.18;0.60;;;10.60;99.90;;;;;;5010010;28;20029;-72
2021/05/23 04:32:05;;;;;;;3.10;1.25;;;10.70;99.50;;;;;;5010504;28;20072;-71
2021/05/23 04:34:31;;;;;;;5.63;1.00;;;10.90;99.70;;;;;;5011233;28;20025;-72
2021/05/23 04:36:57;;;;;;;4.57;0.95;;;10.90;99.40;;;;;;5011122;28;20022;-72
2021/05/23 04:39:23;;;;;;;3.95;0.90;;;10.90;99.40;;;;;;5010020;28;20454;-71
2021/05/23 04:41:48;;;;;;;4.63;0.90;;;10.90;99.80;;;;;;5011102;28;20515;-72
2021/05/23 04:44:14;;;;;;;3.75;0.80;;;10.80;99.70;;;;;;5011357;28;20546;-72
2021/05/23 04:46:39;;;;;;;2.55;0.75;;;10.70;99.70;;;;;;5009859;28;20427;-72
2021/05/23 04:49:05;;;;;;;5.88;0.90;;;10.70;99.80;;;;;;5011089;28;20037;-72
2021/05/23 04:51:31;;;;;;;3.58;1.00;;;10.80;99.80;;;;;;5010860;28;20472;-72
2021/05/23 04:53:56;;;;;;;4.00;0.70;;;10.80;99.90;;;;;;5011597;28;20030;-72
2021/05/23 04:56:22;;;;;;;4.60;0.98;;;10.90;99.60;;;;;;5010964;28;20053;-72
2021/05/23 04:58:48;;;;;;;3.22;0.70;;;11.00;99.30;;;;;;5010812;28;20469;-72
2021/05/23 05:01:14;;;;;;;2.70;0.70;;;11.10;99.40;;;;;;5009591;28;20026;-72
2021/05/23 05:03:39;;;;;;;3.05;0.60;;;11.20;99.50;;;;;;5010955;28;20018;-72
2021/05/23 05:06:05;;;;;;;7.05;0.90;;;11.20;99.30;;;;;;5010922;28;20026;-72
2021/05/23 05:08:31;;;;;;;4.47;0.70;;;11.30;99.30;;;;;;5010731;28;20033;-72
2021/05/23 05:10:56;;;;;;;3.70;1.40;;;11.40;98.90;;;;;;5009474;28;20029;-72
2021/05/23 05:13:22;;;;;;;4.03;0.85;;;11.50;98.90;;;;;;5009468;28;20109;-72
2021/05/23 05:15:47;;;;;;;2.97;1.02;;;11.50;98.90;;;;;;5009548;28;20022;-72
2021/05/23 05:18:13;;;;;;;2.35;0.60;;;11.60;98.70;;;;;;5010790;28;20076;-72
2021/05/23 05:20:39;;;;;;;4.85;0.95;;;11.60;98.50;;;;;;5009495;28;20030;-72
2021/05/23 05:23:05;;;;;;;8.55;1.60;;;11.60;98.70;;;;;;5010580;28;20021;-72
2021/05/23 05:25:31;;;;;;;5.65;0.82;;;11.50;99.00;;;;;;5010743;28;20365;-72
2021/05/23 05:27:56;;;;;;;2.85;0.60;;;11.60;98.90;;;;;;5010656;28;20316;-72
2021/05/23 05:30:22;;;;;;;2.38;0.90;;;11.60;98.70;;;;;;5010605;28;20040;-72
2021/05/23 05:32:48;;;;;;;8.23;1.45;;;11.70;98.50;;;;;;5010477;28;20095;-72
2021/05/23 05:35:14;;;;;;;4.22;1.10;;;11.70;98.80;;;;;;5009490;28;20508;-72
2021/05/23 05:37:39;;;;;;;2.20;1.10;;;11.60;98.90;;;;;;5010672;28;20032;-72
2021/05/23 05:40:06;;;;;;;5.90;0.60;;;11.60;98.40;;;;;;5010609;28;20069;-72
2021/05/23 05:42:32;;;;;;;4.50;1.02;;;11.50;98.50;;;;;;5010657;28;20122;-72
2021/05/23 05:44:57;;;;;;;4.07;0.77;;;11.50;98.40;;;;;;5014156;28;20109;-72
2021/05/23 05:47:23;;;;;;;5.85;0.98;;;11.40;98.80;;;;;;5014235;28;20030;-72
2021/05/23 05:49:48;;;;;;;4.18;0.73;;;11.40;98.50;;;;;;5012965;28;20029;-72
2021/05/23 05:52:14;;;;;;;8.35;1.08;;;11.30;98.70;;;;;;5013919;28;20101;-72
2021/05/23 05:54:40;;;;;;;4.75;0.90;;;11.40;98.80;;;;;;5014192;28;20029;-72
2021/05/23 05:57:05;;;;;;;3.60;1.00;;;11.50;98.80;;;;;;5013888;28;20380;-72
2021/05/23 05:59:31;;;;;;;3.67;0.80;;;11.50;98.80;;;;;;5012693;28;20030;-72
2021/05/23 06:01:56;;;;;;;4.88;0.75;;;11.50;99.00;;;;;;5012437;28;20029;-72
2021/05/23 06:04:22;;;;;;;3.33;0.73;;;11.60;98.90;;;;;;5013953;28;20038;-72
2021/05/23 06:06:47;;;;;;;3.28;0.80;;;11.60;99.20;;;;;;5013670;28;20049;-72
2021/05/23 06:09:13;;;;;;;5.43;0.88;;;11.70;98.90;;;;;;5014700;28;20030;-72
2021/05/23 06:11:38;;;;;;;4.63;0.80;;;11.70;98.60;;;;;;5013689;28;20267;-72
2021/05/23 06:14:04;;;;;;;3.88;0.80;;;11.70;98.40;;;;;;5012516;28;20038;-72
2021/05/23 06:16:30;;;;;;;3.58;0.70;;;11.80;98.50;;;;;;5013780;28;20026;-72
2021/05/23 06:18:55;;;;;;;3.53;0.90;;;11.80;98.70;;;;;;5013685;28;20014;-72
2021/05/23 06:21:21;;;;;;;3.88;0.80;;;11.90;98.40;;;;;;5012014;28;20392;-72
2021/05/23 06:23:46;;;;;;;1.70;0.63;;;11.90;98.40;;;;;;5012494;28;20022;-72
2021/05/23 06:26:14;;;;;;;3.70;1.30;;;12.00;98.40;;;;;;5012145;28;20069;-72
2021/05/23 06:28:41;;;;;;;2.88;0.80;;;12.00;98.70;;;;;;5012108;28;20030;-72
2021/05/23 06:31:06;;;;;;;4.97;1.48;;;12.10;98.20;;;;;;5013454;28;20109;-72
2021/05/23 06:33:32;;;;;;;6.32;1.10;;;12.30;98.20;;;;;;5013173;28;20054;-72
2021/05/23 06:35:58;;;;;;;3.40;0.98;;;12.40;97.70;;;;;;5013350;28;20037;-72
2021/05/23 06:38:23;;;;;;;4.65;0.95;;;12.50;98.00;;;;;;5013293;28;20017;-72
2021/05/23 06:40:49;;;;;;;5.18;0.70;;;12.60;97.20;;;;;;5013223;28;20472;-71
2021/05/23 06:43:14;;;;;;;2.05;0.80;;;12.60;97.50;;;;;;5012894;28;20388;-72
2021/05/23 06:45:40;;;;;;;3.92;0.85;;;12.70;97.30;;;;;;5013516;28;20476;-72
2021/05/23 06:48:06;;;;;;;2.75;0.75;;;12.90;97.00;;;;;;5013054;28;20480;-72
2021/05/23 06:50:31;;;;;;;4.03;0.80;;;12.90;97.20;;;;;;5013035;28;20034;-72
2021/05/23 06:52:57;;;;;;;3.97;1.00;;;12.90;97.00;;;;;;5012901;28;20049;-72
2021/05/23 06:55:23;;;;;;;2.90;0.70;;;13.00;96.50;;;;;;5012357;28;20084;-72
2021/05/23 06:57:48;;;;;;;4.63;0.85;;;13.00;96.80;;;;;;5012914;28;20021;-72
2021/05/23 07:00:14;;;;;;;4.38;0.82;;;13.00;96.60;;;;;;5012907;28;20030;-71
2021/05/23 07:02:40;;;;;;;3.72;1.00;;;13.00;96.60;;;;;;5012550;28;20034;-72
2021/05/23 07:05:06;;;;;;;3.20;0.93;;;13.10;96.80;;;;;;5012768;28;20447;-72
2021/05/23 07:07:32;;;;;;;3.97;1.48;;;13.30;96.30;;;;;;5012925;28;20057;-71
2021/05/23 07:09:58;;;;;;;6.00;1.50;;;13.30;96.30;;;;;;5011394;28;20061;-71
2021/05/23 07:12:24;;;;;;;2.53;0.70;;;13.40;96.10;;;;;;5011167;28;20022;-72
2021/05/23 07:14:49;;;;;;;3.20;0.50;;;13.40;95.70;;;;;;5011365;28;20079;-72
2021/05/23 07:17:15;;;;;;;2.53;0.68;;;13.50;95.70;;;;;;5012587;28;20527;-72
2021/05/23 07:19:40;;;;;;;2.60;0.70;;;13.60;95.40;;;;;;5012524;28;20026;-72
2021/05/23 07:22:06;;;;;;;2.20;0.52;;;13.80;95.40;;;;;;5012641;28;20041;-72
2021/05/23 07:24:31;;;;;;;3.65;1.10;;;14.00;95.40;;;;;;5012369;28;20034;-72
2021/05/23 07:26:57;;;;;;;2.80;0.47;;;14.00;95.90;;;;;;5012242;28;20473;-73
2021/05/23 07:29:23;;;;;;;3.72;0.90;;;14.20;94.70;;;;;;5012336;28;20069;-71
2021/05/23 07:31:48;;;;;;;2.05;0.70;;;14.40;94.70;;;;;;5012071;28;20057;-72
2021/05/23 07:34:14;;;;;;;3.05;0.70;;;14.70;94.30;;;;;;5012456;28;20050;-72
2021/05/23 07:36:40;;;;;;;4.32;0.73;;;14.90;94.10;;;;;;5012553;28;20034;-72
2021/05/23 07:39:05;;;;;;;4.68;0.70;;;14.90;93.70;;;;;;5012508;28;20036;-73
2021/05/23 07:41:31;;;;;;;7.00;0.80;;;14.90;93.10;;;;;;5012471;28;20436;-72
2021/05/23 07:43:56;;;;;;;3.75;0.70;;;14.80;94.30;;;;;;5012425;28;20061;-72
2021/05/23 07:46:22;;;;;;;3.22;0.60;;;14.80;92.80;;;;;;5012036;28;20468;-72
2021/05/23 07:48:48;;;;;;;4.78;0.70;;;14.90;93.50;;;;;;5012249;28;20034;-72
2021/05/23 07:51:13;;;;;;;4.03;0.95;;;15.10;92.80;;;;;;5010644;28;20018;-71
2021/05/23 07:53:39;;;;;;;5.55;1.00;;;15.20;92.60;;;;;;5011718;28;20018;-71
2021/05/23 07:56:05;;;;;;;3.17;0.80;;;15.00;92.90;;;;;;5010777;28;20030;-71
2021/05/23 07:58:30;;;;;;;2.72;0.93;;;15.00;93.00;;;;;;5011724;28;20021;-71
2021/05/23 08:00:56;;;;;;;5.30;0.80;;;15.00;93.10;;;;;;5011846;28;20030;-72
2021/05/23 08:03:22;;;;;;;2.83;0.98;;;15.20;93.10;;;;;;5011602;28;20030;-72
2021/05/23 08:05:47;;;;;;;2.72;0.60;;;15.20;92.40;;;;;;5011395;28;20032;-72
2021/05/23 08:08:13;;;;;;;3.13;0.70;;;15.00;92.50;;;;;;5010977;28;20076;-72
2021/05/23 08:10:38;;;;;;;3.67;0.80;;;15.20;92.70;;;;;;5011528;28;20065;-72
2021/05/23 08:13:04;;;;;;;3.90;1.17;;;15.20;91.80;;;;;;5011392;28;20072;-72
2021/05/23 08:15:31;;;;;;;6.50;0.80;;;15.10;91.70;;;;;;5011600;28;20030;-72
2021/05/23 08:17:57;;;;;;;2.60;0.70;;;15.00;92.10;;;;;;5011584;28;20022;-72
2021/05/23 08:20:23;;;;;;;3.22;0.90;;;15.00;92.10;;;;;;5010196;28;20026;-72
2021/05/23 08:22:48;;;;;;;4.25;1.25;;;14.80;93.10;;;;;;5010096;28;20036;-72
2021/05/23 08:25:14;;;;;;;2.60;0.70;;;14.70;93.30;;;;;;5011439;28;20037;-72
2021/05/23 08:27:40;;;;;;;1.85;0.60;;;14.60;92.70;;;;;;5011282;28;20037;-72
2021/05/23 08:30:10;;;;;;;2.33;1.00;;;14.50;92.70;;;;;;5011224;28;20105;-71
2021/05/23 08:32:36;;;;;;;4.38;0.63;;;14.30;93.00;;;;;;5011024;28;20026;-72
2021/05/23 08:35:04;;;;;;;3.30;0.57;;;14.20;92.80;;;;;;5011243;28;20018;-71
2021/05/23 08:37:30;;;;;;;2.85;0.60;;;14.20;93.40;;;;;;5011087;28;20049;-71
2021/05/23 08:39:55;;;;;;;3.88;0.85;;;14.20;93.00;;;;;;5009651;28;20021;-72
2021/05/23 08:42:21;;;;;;;4.50;0.77;;;14.20;93.10;;;;;;5026855;28;20487;-73
2021/05/23 08:44:47;;;;;;;3.22;0.73;;;14.00;93.50;;;;;;5030810;28;20109;-72
2021/05/23 08:47:13;;;;;;;4.40;0.90;;;13.80;94.30;;;;;;5029496;28;20319;-72
2021/05/23 08:49:39;;;;;;;3.40;1.08;;;13.60;95.70;;;;;;5030677;28;20083;-74
2021/05/23 08:52:04;;;;;;;2.65;1.05;;;13.50;96.40;;;;;;5030479;28;20041;-72
2021/05/23 08:54:30;;;;;;;3.38;1.02;;;13.50;96.30;;;;;;5030653;28;20029;-72
2021/05/23 08:56:55;;;;;;;6.00;2.00;;;13.70;95.30;;;;;;5030617;28;20026;-72
2021/05/23 08:59:21;;;;;;;4.80;1.50;;;13.80;96.70;;;;;;5030757;28;20021;-73
2021/05/23 09:01:48;;;;;;;6.65;1.52;;;14.10;96.40;;;;;;5024117;28;20021;-72
2021/05/23 09:04:19;;;;;;;3.58;0.93;;;14.40;94.30;;;;;;5010405;28;20038;-74
2021/05/23 09:06:45;;;;;;;3.22;0.90;;;14.50;93.70;;;;;;5025863;28;20057;-72
2021/05/23 09:09:13;;;;;;;3.08;1.00;;;14.60;94.50;;;;;;5026218;28;20026;-73
2021/05/23 09:11:50;;;;;;;4.25;0.90;;;14.60;93.70;;;;;;5010886;28;20491;-73
2021/05/23 09:14:33;;;;;;;3.38;0.95;;;14.60;94.50;;;;;;5026245;28;20060;-71
2021/05/23 09:16:59;;;;;;;2.60;0.75;;;14.60;94.20;;;;;;5010861;28;20022;-72
2021/05/23 09:19:26;;;;;;;3.65;0.82;;;14.50;94.50;;;;;;5014269;28;20543;-72
2021/05/23 09:21:52;;;;;;;3.13;0.70;;;14.50;94.50;;;;;;5029785;28;20034;-72
2021/05/23 09:24:19;;;;;;;3.88;0.82;;;14.70;94.00;;;;;;5029820;28;20084;-72
2021/05/23 09:26:47;;;;;;;2.20;0.75;;;14.80;94.40;;;;;;5028791;28;20033;-73
2021/05/23 09:29:16;;;;;;;2.78;0.70;;;15.00;94.60;;;;;;5014295;28;20026;-73
2021/05/23 09:31:45;;;;;;;2.50;0.70;;;14.90;94.90;;;;;;5013053;28;20498;-72
2021/05/23 09:34:23;;;;;;;3.17;0.60;;;15.20;94.80;;;;;;5029695;28;20505;-73
2021/05/23 09:36:49;;;;;;;3.50;0.88;;;15.10;93.00;;;;;;5014343;28;20109;-72
2021/05/23 09:39:19;;;;;;;4.38;1.00;;;15.00;93.70;;;;;;5028874;28;20083;-72
2021/05/23 09:41:45;;;;;;;3.22;0.80;;;14.70;93.90;;;;;;5013207;28;20432;-72
2021/05/23 09:44:25;;;;;;;4.38;0.95;;;14.60;95.00;;;;;;5013058;28;20446;-72
2021/05/23 09:47:09;;;;;;;3.95;0.75;;;14.70;95.30;;;;;;5014445;28;20045;-72
2021/05/23 09:49:50;;;;;;;1.27;0.50;;;14.80;95.00;;;;;;5029591;28;20126;-71
2021/05/23 09:52:17;;;;;;;2.47;0.65;;;14.80;93.40;;;;;;5029373;28;20108;-72
2021/05/23 09:54:49;;;;;;;1.77;0.70;;;15.00;93.20;;;;;;5014121;28;20518;-72
2021/05/23 09:57:17;;;;;;;1.98;0.75;;;15.20;93.10;;;;;;5013905;28;20079;-73
2021/05/23 09:59:43;;;;;;;2.85;0.90;;;15.40;92.90;;;;;;5014018;28;20065;-72
2021/05/23 10:02:12;;;;;;;3.55;0.90;;;15.40;92.70;;;;;;5013724;28;20095;-72
2021/05/23 10:04:38;;;;;;;1.92;0.80;;;15.50;92.80;;;;;;5013941;28;20030;-72
2021/05/23 10:07:09;;;;;;;2.22;0.88;;;15.50;92.20;;;;;;5013566;28;20081;-72
2021/05/23 10:09:36;;;;;;;3.97;1.10;;;15.40;92.10;;;;;;5013723;28;20038;-72
2021/05/23 10:12:03;;;;;;;3.35;1.35;;;15.30;92.90;;;;;;5013512;28;20037;-73
2021/05/23 10:14:29;;;;;;;4.18;0.90;;;15.00;92.00;;;;;;5013657;28;20030;-72
2021/05/23 10:16:56;;;;;;;5.13;1.65;;;14.90;92.20;;;;;;5013621;28;20018;-72
2021/05/23 10:19:26;;;;;;;2.83;0.65;;;15.00;92.80;;;;;;5013588;28;20026;-72
2021/05/23 10:21:52;;;;;;;;;;;15.00;92.70;;;;;;5029039;28;20049;-72
2021/05/23 10:24:42;;;;;;;2.28;0.70;;;15.10;91.90;;;;;;5013525;28;19959;-72
2021/05/23 10:27:13;;;;;;;5.70;1.40;;;15.10;91.90;;;;;;5013528;28;20037;-72
2021/05/23 10:29:45;;;;;;;2.50;0.77;;;15.00;92.50;;;;;;5012405;28;20034;-72
2021/05/23 10:32:17;;;;;;;2.03;0.60;;;15.00;91.70;;;;;;5013188;28;20100;-74
2021/05/23 10:34:46;;;;;;;1.85;0.50;;;15.00;92.10;;;;;;5013465;28;20045;-72
2021/05/23 10:37:13;;;;;;;3.10;1.05;;;15.00;91.70;;;;;;5013234;28;20026;-72
2021/05/23 10:39:42;;;;;;;4.05;1.75;;;15.20;91.40;;;;;;5028440;28;20036;-72
2021/05/23 10:42:12;;;;;;;6.20;0.88;;;15.20;91.60;;;;;;5013018;28;20105;-73
2021/05/23 10:44:39;;;;;;;;;;;15.40;91.30;;;;;;5013699;28;20369;-72
2021/05/23 10:47:10;;;;;;;2.45;0.68;;;15.60;91.10;;;;;;5013386;28;19910;-73
2021/05/23 10:49:35;;;;;;;2.17;0.65;;;15.80;90.60;;;;;;5013280;28;20033;-73
2021/05/23 10:52:02;;;;;;;4.18;0.93;;;15.90;90.70;;;;;;5013057;28;20026;-72
2021/05/23 10:54:28;;;;;;;6.13;1.35;;;16.00;90.50;;;;;;5013234;28;20022;-73
2021/05/23 10:57:01;;;;;;;2.22;0.60;;;16.00;91.70;;;;;;5012967;28;20026;-73
2021/05/23 10:59:31;;;;;;;3.13;0.80;;;16.10;90.90;;;;;;5013208;28;20030;-72
2021/05/23 11:01:56;;;;;;;7.00;1.58;;;16.20;91.50;;;;;;5012726;28;20026;-72
2021/05/23 11:04:24;;;;;;;2.90;0.68;;;16.30;91.00;;;;;;5013332;28;20075;-72
2021/05/23 11:06:50;;;;;;;1.55;0.75;;;16.70;90.50;;;;;;5012881;28;20493;-72
2021/05/23 11:09:21;;;;;;;1.50;0.60;;;16.80;90.20;;;;;;5011740;28;20116;-72
2021/05/23 11:11:47;;;;;;;2.75;0.65;;;16.70;90.50;;;;;;5012838;28;20105;-72
2021/05/23 11:14:22;;;;;;;1.85;0.60;;;16.40;90.90;;;;;;5013046;28;20025;-72
2021/05/23 11:16:55;;;;;;;1.75;0.50;;;16.40;90.70;;;;;;5012777;28;20022;-71
2021/05/23 11:19:22;;;;;;;2.78;0.50;;;16.10;89.60;;;;;;5027927;28;20044;-73
2021/05/23 11:21:52;;;;;;;1.27;0.60;;;15.90;90.10;;;;;;5012262;28;20022;-72
2021/05/23 11:24:18;;;;;;;1.92;0.60;;;15.90;90.80;;;;;;5027978;28;20549;-72
2021/05/23 11:26:45;;;;;;;1.45;0.50;;;16.00;90.50;;;;;;5012387;28;20381;-72
2021/05/23 11:29:11;;;;;;;1.42;0.60;;;16.30;89.80;;;;;;5011106;28;20032;-73
2021/05/23 11:31:48;;;;;;;0.90;0.40;;;16.60;88.60;;;;;;5012092;28;20119;-73
2021/05/23 11:34:21;;;;;;;1.27;0.50;;;16.50;88.60;;;;;;5011056;28;20065;-72
2021/05/23 11:36:47;;;;;;;1.35;0.57;;;16.20;90.00;;;;;;5012127;28;20025;-72
2021/05/23 11:39:17;;;;;;;1.85;0.70;;;15.60;93.80;;;;;;5027296;28;20030;-73
2021/05/23 11:41:48;;;;;;;1.65;0.80;;;15.10;94.70;;;;;;5011704;28;20021;-72
2021/05/23 11:44:15;;;;;;;2.28;0.63;;;14.70;96.90;;;;;;5027377;28;20029;-72
2021/05/23 11:46:50;;;;;;;2.05;0.70;;;14.50;97.80;;;;;;5010694;28;20030;-73
2021/05/23 11:49:21;;;;;;;2.17;0.60;;;14.60;96.30;;;;;;5011884;28;20026;-72
2021/05/23 11:51:47;;;;;;;1.42;0.60;;;14.70;96.70;;;;;;5011670;28;20030;-73
2021/05/23 11:54:13;;;;;;;1.27;0.50;;;14.80;96.70;;;;;;5011945;28;20026;-72
2021/05/23 11:56:40;;;;;;;1.33;0.60;;;14.80;96.80;;;;;;5026944;28;20032;-72
2021/05/23 11:59:07;;;;;;;2.67;0.50;;;15.00;96.90;;;;;;5010796;28;20392;-72
2021/05/23 12:01:55;;;;;;;1.02;0.55;;;15.20;95.70;;;;;;5018047;28;20101;-72
2021/05/23 12:04:22;;;;;;;1.30;0.47;;;15.10;95.20;;;;;;5025086;28;20040;-72
2021/05/23 12:06:53;;;;;;;1.65;0.50;;;15.40;95.30;;;;;;5030055;28;20032;-72
2021/05/23 12:09:29;;;;;;;3.05;0.60;;;15.60;93.00;;;;;;5068175;23;20049;-72
2021/05/23 12:12:05;;;;;;;0.82;0.43;;;15.80;93.30;;;;;;5029463;28;20479;-74
2021/05/23 12:14:39;;;;;;;2.05;0.70;;;16.10;92.30;;;;;;5031353;28;20053;-74
2021/05/23 12:17:07;;;;;;;2.33;0.60;;;16.30;91.70;;;;;;5046576;28;20372;-74
2021/05/23 12:19:48;;;;;;;0.95;0.60;;;16.40;89.60;;;;;;5011528;28;20030;-74
2021/05/23 12:22:20;;;;;;;2.13;0.85;;;16.40;89.70;;;;;;5010825;28;20037;-74
2021/05/23 12:24:48;;;;;;;1.25;0.43;;;16.60;91.40;;;;;;5010200;28;20034;-74
2021/05/23 12:27:34;;;;;;;2.78;0.50;;;16.90;88.10;;;;;;5010013;28;20391;-75
2021/05/23 12:30:12;;;;;;;0.63;0.43;;;17.30;86.30;;;;;;5011333;28;20455;-75
2021/05/23 12:32:45;;;;;;;3.35;0.50;;;17.40;82.90;;;;;;5009530;28;20427;-74
2021/05/23 12:35:13;;;;;;;2.17;0.40;;;17.40;83.80;;;;;;5010040;28;20026;-74
2021/05/23 12:37:41;;;;;;;1.55;0.50;;;17.40;83.40;;;;;;5009976;28;20033;-74
2021/05/23 12:40:14;;;;;;;1.88;0.50;;;17.60;81.40;;;;;;5011210;28;20026;-74
2021/05/23 12:42:40;;;;;;;1.38;0.50;;;17.70;81.80;;;;;;5009491;28;20044;-74
2021/05/23 12:45:07;;;;;;;2.17;0.50;;;17.70;78.30;;;;;;5009975;28;20022;-74
2021/05/23 12:47:38;;;;;;;1.27;0.55;;;17.80;79.70;;;;;;5026225;28;20080;-74
2021/05/23 12:50:04;;;;;;;4.30;0.80;;;17.90;78.50;;;;;;5009673;28;20030;-74
2021/05/23 12:52:29;;;;;;;1.15;0.40;;;17.90;79.90;;;;;;5008981;28;20091;-74